sensor_id;sensor_type;location;lat;lon;timestamp;pressure;altitude;pressure_sealevel;temperature;humidity
33286;BME280;19656;50.096;20.014;2024-03-23T00:53:48;98384.66;;;12.31;64.61
33286;BME280;19656;50.096;20.014;2024-03-23T00:58:50;98378.38;;;12.30;64.95
33286;BME280;19656;50.096;20.014;2024-03-23T01:03:53;98378.20;;;12.32;65.19
33286;BME280;19656;50.096;20.014;2024-03-23T01:08:56;98378.44;;;12.36;65.19
33286;BME280;19656;50.096;20.014;2024-03-23T01:13:59;98374.46;;;12.37;65.14
33286;BME280;19656;50.096;20.014;2024-03-23T01:19:03;98369.02;;;12.34;65.20
33286;BME280;19656;50.096;20.014;2024-03-23T01:24:06;98365.64;;;12.29;65.56
33286;BME280;19656;50.096;20.014;2024-03-23T01:29:09;98362.67;;;12.24;65.75
33286;BME280;19656;50.096;20.014;2024-03-23T01:34:12;98359.93;;;12.23;65.82
33286;BME280;19656;50.096;20.014;2024-03-23T01:39:15;98355.58;;;12.19;65.91
33286;BME280;19656;50.096;20.014;2024-03-23T01:44:18;98352.27;;;12.14;66.03
33286;BME280;19656;50.096;20.014;2024-03-23T01:49:21;98349.56;;;12.12;66.11
33286;BME280;19656;50.096;20.014;2024-03-23T01:54:25;98347.21;;;12.13;66.09
33286;BME280;19656;50.096;20.014;2024-03-23T01:59:28;98348.77;;;12.11;65.87
33286;BME280;19656;50.096;20.014;2024-03-23T02:04:30;98344.65;;;12.09;66.03
33286;BME280;19656;50.096;20.014;2024-03-23T02:09:33;98343.61;;;12.06;65.95
33286;BME280;19656;50.096;20.014;2024-03-23T02:14:36;98337.27;;;12.06;65.87
33286;BME280;19656;50.096;20.014;2024-03-23T02:19:39;98326.27;;;12.03;66.24
33286;BME280;19656;50.096;20.014;2024-03-23T02:24:42;98320.42;;;12.03;66.45
33286;BME280;19656;50.096;20.014;2024-03-23T02:29:45;98313.56;;;12.06;66.37
33286;BME280;19656;50.096;20.014;2024-03-23T02:34:48;98312.16;;;12.15;66.43
33286;BME280;19656;50.096;20.014;2024-03-23T02:39:51;98293.73;;;12.16;66.46
33286;BME280;19656;50.096;20.014;2024-03-23T02:44:54;98284.97;;;12.15;66.57
33286;BME280;19656;50.096;20.014;2024-03-23T02:49:57;98282.40;;;12.14;66.40
33286;BME280;19656;50.096;20.014;2024-03-23T02:55:01;98282.91;;;12.12;66.45
33286;BME280;19656;50.096;20.014;2024-03-23T03:00:07;98284.15;;;12.12;66.66
33286;BME280;19656;50.096;20.014;2024-03-23T03:05:11;98283.79;;;12.07;66.60
33286;BME280;19656;50.096;20.014;2024-03-23T03:10:15;98283.99;;;11.98;66.95
33286;BME280;19656;50.096;20.014;2024-03-23T03:15:18;98286.89;;;11.93;66.93
33286;BME280;19656;50.096;20.014;2024-03-23T03:20:21;98277.20;;;11.88;67.36
33286;BME280;19656;50.096;20.014;2024-03-23T03:25:24;98266.41;;;11.82;67.76
33286;BME280;19656;50.096;20.014;2024-03-23T03:30:28;98258.15;;;11.81;67.84
33286;BME280;19656;50.096;20.014;2024-03-23T03:35:31;98248.00;;;11.83;67.97
33286;BME280;19656;50.096;20.014;2024-03-23T03:40:33;98248.30;;;11.89;67.70
33286;BME280;19656;50.096;20.014;2024-03-23T03:45:36;98247.53;;;11.92;67.62
33286;BME280;19656;50.096;20.014;2024-03-23T03:50:39;98241.42;;;11.95;67.29
33286;BME280;19656;50.096;20.014;2024-03-23T03:55:42;98228.91;;;11.96;67.46
33286;BME280;19656;50.096;20.014;2024-03-23T04:00:45;98228.57;;;11.96;67.51
33286;BME280;19656;50.096;20.014;2024-03-23T04:05:54;98215.77;;;11.93;67.66
33286;BME280;19656;50.096;20.014;2024-03-23T04:10:57;98219.20;;;11.91;67.58
33286;BME280;19656;50.096;20.014;2024-03-23T04:16:00;98221.60;;;11.82;67.32
33286;BME280;19656;50.096;20.014;2024-03-23T04:21:03;98223.73;;;11.80;67.63
33286;BME280;19656;50.096;20.014;2024-03-23T04:26:06;98222.96;;;11.76;67.57
33286;BME280;19656;50.096;20.014;2024-03-23T04:31:09;98230.73;;;11.75;67.70
33286;BME280;19656;50.096;20.014;2024-03-23T04:36:13;98215.61;;;11.75;67.62
33286;BME280;19656;50.096;20.014;2024-03-23T04:41:15;98217.60;;;11.79;68.20
33286;BME280;19656;50.096;20.014;2024-03-23T04:46:18;98215.70;;;11.85;68.34
33286;BME280;19656;50.096;20.014;2024-03-23T04:51:22;98216.38;;;11.92;68.44
33286;BME280;19656;50.096;20.014;2024-03-23T04:56:26;98206.89;;;11.95;68.43
33286;BME280;19656;50.096;20.014;2024-03-23T05:01:28;98202.91;;;11.98;68.79
33286;BME280;19656;50.096;20.014;2024-03-23T05:06:31;98193.97;;;11.99;68.84
33286;BME280;19656;50.096;20.014;2024-03-23T05:11:35;98187.72;;;11.93;68.86
33286;BME280;19656;50.096;20.014;2024-03-23T05:16:37;98181.38;;;11.94;69.59
33286;BME280;19656;50.096;20.014;2024-03-23T05:21:40;98172.32;;;12.01;69.50
33286;BME280;19656;50.096;20.014;2024-03-23T05:26:43;98175.06;;;11.98;68.98
33286;BME280;19656;50.096;20.014;2024-03-23T05:31:49;98168.55;;;11.97;68.88
33286;BME280;19656;50.096;20.014;2024-03-23T05:36:52;98164.98;;;12.01;68.86
33286;BME280;19656;50.096;20.014;2024-03-23T05:41:55;98164.56;;;12.09;68.64
33286;BME280;19656;50.096;20.014;2024-03-23T05:46:58;98144.11;;;12.11;68.41
33286;BME280;19656;50.096;20.014;2024-03-23T05:52:01;98142.98;;;12.10;68.41
33286;BME280;19656;50.096;20.014;2024-03-23T05:57:06;98146.42;;;12.08;68.61
33286;BME280;19656;50.096;20.014;2024-03-23T06:02:10;98149.54;;;12.05;68.66
33286;BME280;19656;50.096;20.014;2024-03-23T06:07:13;98145.20;;;12.09;69.05
33286;BME280;19656;50.096;20.014;2024-03-23T06:12:16;98143.36;;;12.12;68.93
33286;BME280;19656;50.096;20.014;2024-03-23T06:17:19;98139.23;;;12.10;68.90
33286;BME280;19656;50.096;20.014;2024-03-23T06:22:22;98130.07;;;12.06;68.98
33286;BME280;19656;50.096;20.014;2024-03-23T06:27:25;98125.42;;;12.09;69.33
33286;BME280;19656;50.096;20.014;2024-03-23T06:32:28;98114.96;;;12.17;69.03
33286;BME280;19656;50.096;20.014;2024-03-23T06:37:31;98119.20;;;12.24;68.88
33286;BME280;19656;50.096;20.014;2024-03-23T06:42:34;98103.58;;;12.30;69.15
33286;BME280;19656;50.096;20.014;2024-03-23T06:47:37;98109.25;;;12.37;69.12
33286;BME280;19656;50.096;20.014;2024-03-23T06:52:40;98114.19;;;12.37;69.01
33286;BME280;19656;50.096;20.014;2024-03-23T06:57:43;98121.66;;;12.37;68.55
33286;BME280;19656;50.096;20.014;2024-03-23T07:02:46;98115.52;;;12.36;68.32
33286;BME280;19656;50.096;20.014;2024-03-23T07:07:49;98110.71;;;12.38;68.34
33286;BME280;19656;50.096;20.014;2024-03-23T07:12:52;98099.95;;;12.39;67.80
33286;BME280;19656;50.096;20.014;2024-03-23T07:17:55;98095.40;;;12.42;67.55
33286;BME280;19656;50.096;20.014;2024-03-23T07:22:58;98094.65;;;12.47;67.27
33286;BME280;19656;50.096;20.014;2024-03-23T07:28:01;98095.83;;;12.50;67.13
33286;BME280;19656;50.096;20.014;2024-03-23T07:33:06;98090.39;;;12.57;66.96
33286;BME280;19656;50.096;20.014;2024-03-23T07:38:09;98084.33;;;12.72;66.53
33286;BME280;19656;50.096;20.014;2024-03-23T07:43:12;98076.70;;;12.90;66.35
33286;BME280;19656;50.096;20.014;2024-03-23T07:48:14;98076.46;;;13.01;65.25
33286;BME280;19656;50.096;20.014;2024-03-23T07:53:17;98062.38;;;13.14;65.10
33286;BME280;19656;50.096;20.014;2024-03-23T07:58:20;98058.70;;;13.29;65.03
33286;BME280;19656;50.096;20.014;2024-03-23T08:03:23;98053.23;;;13.48;64.68
33286;BME280;19656;50.096;20.014;2024-03-23T08:08:26;98044.14;;;13.66;64.07
33286;BME280;19656;50.096;20.014;2024-03-23T08:13:30;98026.34;;;13.88;63.82
33286;BME280;19656;50.096;20.014;2024-03-23T08:18:33;98010.04;;;13.98;63.57
33286;BME280;19656;50.096;20.014;2024-03-23T08:23:36;98003.34;;;14.09;63.42
33286;BME280;19656;50.096;20.014;2024-03-23T08:28:40;98003.86;;;14.28;62.48
33286;BME280;19656;50.096;20.014;2024-03-23T08:33:43;97992.47;;;14.37;61.94
33286;BME280;19656;50.096;20.014;2024-03-23T08:38:46;97986.98;;;14.46;60.92
33286;BME280;19656;50.096;20.014;2024-03-23T08:43:50;97985.81;;;14.53;59.91
33286;BME280;19656;50.096;20.014;2024-03-23T08:48:53;97985.80;;;14.57;59.02
33286;BME280;19656;50.096;20.014;2024-03-23T08:53:56;97967.41;;;14.62;58.87
33286;BME280;19656;50.096;20.014;2024-03-23T08:58:59;97958.27;;;14.70;58.08
33286;BME280;19656;50.096;20.014;2024-03-23T09:04:03;97946.56;;;14.77;57.17
33286;BME280;19656;50.096;20.014;2024-03-23T09:09:06;97930.80;;;14.86;56.59
33286;BME280;19656;50.096;20.014;2024-03-23T09:14:09;97919.73;;;14.99;55.76
33286;BME280;19656;50.096;20.014;2024-03-23T09:19:12;97918.94;;;15.15;54.93
33286;BME280;19656;50.096;20.014;2024-03-23T09:24:15;97906.83;;;15.25;54.32
33286;BME280;19656;50.096;20.014;2024-03-23T09:29:18;97894.62;;;15.40;54.13
33286;BME280;19656;50.096;20.014;2024-03-23T09:34:21;97883.95;;;15.55;53.82
33286;BME280;19656;50.096;20.014;2024-03-23T09:39:24;97883.64;;;15.70;53.57
33286;BME280;19656;50.096;20.014;2024-03-23T09:44:29;97872.06;;;15.84;53.35
33286;BME280;19656;50.096;20.014;2024-03-23T09:49:33;97864.45;;;15.98;52.79
33286;BME280;19656;50.096;20.014;2024-03-23T09:54:39;97849.48;;;16.06;52.31
33286;BME280;19656;50.096;20.014;2024-03-23T09:59:42;97839.63;;;16.23;52.63
33286;BME280;19656;50.096;20.014;2024-03-23T10:04:46;97820.00;;;16.39;52.37
33286;BME280;19656;50.096;20.014;2024-03-23T10:09:49;97806.52;;;16.57;51.50
33286;BME280;19656;50.096;20.014;2024-03-23T10:14:54;97793.50;;;16.78;51.35
33286;BME280;19656;50.096;20.014;2024-03-23T10:19:56;97793.05;;;16.97;50.28
33286;BME280;19656;50.096;20.014;2024-03-23T10:25:10;97783.39;;;17.12;49.73
33286;BME280;19656;50.096;20.014;2024-03-23T10:30:14;97777.06;;;17.36;49.45
33286;BME280;19656;50.096;20.014;2024-03-23T10:35:18;97770.77;;;17.66;49.10
33286;BME280;19656;50.096;20.014;2024-03-23T10:40:23;97749.27;;;17.97;47.81
33286;BME280;19656;50.096;20.014;2024-03-23T10:45:26;97734.70;;;18.24;45.88
33286;BME280;19656;50.096;20.014;2024-03-23T10:50:29;97716.76;;;18.53;45.40
33286;BME280;19656;50.096;20.014;2024-03-23T10:55:33;97687.63;;;18.84;44.02
33286;BME280;19656;50.096;20.014;2024-03-23T11:00:37;97671.53;;;19.11;41.84
33286;BME280;19656;50.096;20.014;2024-03-23T11:05:46;97657.45;;;19.29;40.03
33286;BME280;19656;50.096;20.014;2024-03-23T11:10:49;97648.52;;;19.35;38.07
33286;BME280;19656;50.096;20.014;2024-03-23T11:15:52;97645.21;;;19.46;37.82
33286;BME280;19656;50.096;20.014;2024-03-23T11:20:55;97639.45;;;19.56;36.31
33286;BME280;19656;50.096;20.014;2024-03-23T11:25:58;97631.25;;;19.65;35.84
33286;BME280;19656;50.096;20.014;2024-03-23T11:31:01;97624.98;;;19.78;36.08
33286;BME280;19656;50.096;20.014;2024-03-23T11:36:04;97607.04;;;20.01;35.76
33286;BME280;19656;50.096;20.014;2024-03-23T11:41:08;97590.65;;;20.26;35.24
33286;BME280;19656;50.096;20.014;2024-03-23T11:46:10;97573.22;;;20.46;35.03
33286;BME280;19656;50.096;20.014;2024-03-23T11:51:13;97563.94;;;20.73;33.47
33286;BME280;19656;50.096;20.014;2024-03-23T11:56:16;97545.78;;;20.91;33.97
33286;BME280;19656;50.096;20.014;2024-03-23T12:01:20;97534.91;;;20.91;33.28
33286;BME280;19656;50.096;20.014;2024-03-23T12:06:23;97523.95;;;20.99;34.12
33286;BME280;19656;50.096;20.014;2024-03-23T12:11:26;97501.61;;;21.14;33.79
33286;BME280;19656;50.096;20.014;2024-03-23T12:16:29;97474.11;;;21.12;32.74
33286;BME280;19656;50.096;20.014;2024-03-23T12:21:32;97459.37;;;21.18;32.95
33286;BME280;19656;50.096;20.014;2024-03-23T12:26:35;97442.61;;;21.20;32.68
33286;BME280;19656;50.096;20.014;2024-03-23T12:31:37;97430.20;;;21.20;32.08
33286;BME280;19656;50.096;20.014;2024-03-23T12:36:41;97416.23;;;21.34;32.51
33286;BME280;19656;50.096;20.014;2024-03-23T12:41:43;97401.05;;;21.68;32.06
33286;BME280;19656;50.096;20.014;2024-03-23T12:46:46;97400.36;;;22.01;32.18
33286;BME280;19656;50.096;20.014;2024-03-23T12:51:54;97390.42;;;22.28;31.82
33286;BME280;19656;50.096;20.014;2024-03-23T12:56:58;97381.73;;;22.56;30.84
33286;BME280;19656;50.096;20.014;2024-03-23T13:02:01;97369.25;;;22.65;30.09
33286;BME280;19656;50.096;20.014;2024-03-23T13:07:04;97356.70;;;22.77;30.18
33286;BME280;19656;50.096;20.014;2024-03-23T13:12:08;97338.05;;;22.84;29.47
33286;BME280;19656;50.096;20.014;2024-03-23T13:17:11;97320.02;;;22.88;30.05
33286;BME280;19656;50.096;20.014;2024-03-23T13:22:14;97304.60;;;23.17;29.55
33286;BME280;19656;50.096;20.014;2024-03-23T13:27:17;97291.63;;;23.41;29.63
33286;BME280;19656;50.096;20.014;2024-03-23T13:32:21;97279.54;;;23.61;29.40
33286;BME280;19656;50.096;20.014;2024-03-23T13:37:24;97276.56;;;23.79;28.99
33286;BME280;19656;50.096;20.014;2024-03-23T13:42:27;97259.63;;;23.88;28.79
33286;BME280;19656;50.096;20.014;2024-03-23T13:47:30;97257.39;;;23.96;29.22
33286;BME280;19656;50.096;20.014;2024-03-23T13:52:33;97254.27;;;23.90;29.33
33286;BME280;19656;50.096;20.014;2024-03-23T13:57:35;97245.73;;;23.62;29.83
33286;BME280;19656;50.096;20.014;2024-03-23T14:02:38;97239.02;;;23.15;29.84
33286;BME280;19656;50.096;20.014;2024-03-23T14:07:41;97241.58;;;22.66;30.47
33286;BME280;19656;50.096;20.014;2024-03-23T14:12:44;97241.24;;;22.37;30.93
33286;BME280;19656;50.096;20.014;2024-03-23T14:17:48;97241.05;;;22.09;31.31
33286;BME280;19656;50.096;20.014;2024-03-23T14:22:55;97238.90;;;21.82;29.69
33286;BME280;19656;50.096;20.014;2024-03-23T14:27:58;97234.40;;;21.51;28.68
33286;BME280;19656;50.096;20.014;2024-03-23T14:33:01;97241.70;;;21.28;28.45
33286;BME280;19656;50.096;20.014;2024-03-23T14:38:04;97247.27;;;21.05;28.71
33286;BME280;19656;50.096;20.014;2024-03-23T14:43:07;97284.45;;;20.87;28.51
33286;BME280;19656;50.096;20.014;2024-03-23T14:48:10;97378.36;;;20.67;30.52
33286;BME280;19656;50.096;20.014;2024-03-23T14:53:14;97487.36;;;19.70;41.68
33286;BME280;19656;50.096;20.014;2024-03-23T14:58:17;97525.73;;;18.37;45.28
33286;BME280;19656;50.096;20.014;2024-03-23T15:03:20;97527.59;;;17.35;47.52
33286;BME280;19656;50.096;20.014;2024-03-23T15:08:23;97537.00;;;16.54;49.73
33286;BME280;19656;50.096;20.014;2024-03-23T15:13:27;97533.92;;;16.07;50.51
33286;BME280;19656;50.096;20.014;2024-03-23T15:18:30;97544.05;;;15.73;51.16
33286;BME280;19656;50.096;20.014;2024-03-23T15:23:33;97540.74;;;15.43;52.07
33286;BME280;19656;50.096;20.014;2024-03-23T15:28:36;97547.70;;;15.27;52.46
33286;BME280;19656;50.096;20.014;2024-03-23T15:33:57;97567.77;;;15.06;53.37
33286;BME280;19656;50.096;20.014;2024-03-23T15:39:02;97600.94;;;14.87;54.39
33286;BME280;19656;50.096;20.014;2024-03-23T15:44:05;97631.88;;;14.69;55.60
33286;BME280;19656;50.096;20.014;2024-03-23T15:49:08;97639.27;;;14.47;57.68
33286;BME280;19656;50.096;20.014;2024-03-23T15:54:11;97646.36;;;14.33;58.95
33286;BME280;19656;50.096;20.014;2024-03-23T15:59:14;97663.11;;;14.20;60.01
33286;BME280;19656;50.096;20.014;2024-03-23T16:04:17;97663.66;;;14.19;60.54
33286;BME280;19656;50.096;20.014;2024-03-23T16:09:20;97667.99;;;14.09;61.56
33286;BME280;19656;50.096;20.014;2024-03-23T16:14:23;97645.39;;;14.03;62.37
33286;BME280;19656;50.096;20.014;2024-03-23T16:19:26;97640.70;;;13.98;63.32
33286;BME280;19656;50.096;20.014;2024-03-23T16:24:29;97651.12;;;13.90;63.75
33286;BME280;19656;50.096;20.014;2024-03-23T16:29:32;97666.55;;;13.93;64.40
33286;BME280;19656;50.096;20.014;2024-03-23T16:34:35;97662.60;;;13.95;64.60
33286;BME280;19656;50.096;20.014;2024-03-23T16:39:38;97661.42;;;13.98;64.42
33286;BME280;19656;50.096;20.014;2024-03-23T16:44:41;97652.16;;;13.98;63.99
33286;BME280;19656;50.096;20.014;2024-03-23T16:49:49;97665.33;;;13.94;63.61
33286;BME280;19656;50.096;20.014;2024-03-23T16:54:55;97660.23;;;13.90;63.18
33286;BME280;19656;50.096;20.014;2024-03-23T16:59:58;97672.20;;;13.90;63.50
33286;BME280;19656;50.096;20.014;2024-03-23T17:05:01;97696.01;;;13.76;63.79
33286;BME280;19656;50.096;20.014;2024-03-23T17:10:04;97704.23;;;13.61;64.09
33286;BME280;19656;50.096;20.014;2024-03-23T17:15:07;97704.61;;;13.59;64.38
33286;BME280;19656;50.096;20.014;2024-03-23T17:20:11;97710.23;;;13.65;64.16
33286;BME280;19656;50.096;20.014;2024-03-23T17:25:14;97717.36;;;13.65;63.63
33286;BME280;19656;50.096;20.014;2024-03-23T17:30:17;97730.00;;;13.62;63.37
33286;BME280;19656;50.096;20.014;2024-03-23T17:35:21;97749.95;;;13.47;63.54
33286;BME280;19656;50.096;20.014;2024-03-23T17:40:24;97754.48;;;13.52;63.57
33286;BME280;19656;50.096;20.014;2024-03-23T17:45:27;97766.54;;;13.50;63.28
33286;BME280;19656;50.096;20.014;2024-03-23T17:50:30;97801.98;;;13.39;63.60
33286;BME280;19656;50.096;20.014;2024-03-23T17:55:34;97864.02;;;13.03;63.33
33286;BME280;19656;50.096;20.014;2024-03-23T18:00:36;97890.48;;;12.36;62.56
33286;BME280;19656;50.096;20.014;2024-03-23T18:05:40;97910.61;;;11.88;62.24
33286;BME280;19656;50.096;20.014;2024-03-23T18:10:43;97911.05;;;11.33;62.73
33286;BME280;19656;50.096;20.014;2024-03-23T18:15:54;97924.80;;;11.08;63.72
33286;BME280;19656;50.096;20.014;2024-03-23T18:21:01;97928.98;;;10.96;64.30
33286;BME280;19656;50.096;20.014;2024-03-23T18:26:04;97951.64;;;10.86;64.59
33286;BME280;19656;50.096;20.014;2024-03-23T18:31:07;97959.94;;;10.86;65.13
33286;BME280;19656;50.096;20.014;2024-03-23T18:36:10;97945.09;;;10.96;65.55
33286;BME280;19656;50.096;20.014;2024-03-23T18:41:14;97935.74;;;10.98;65.27
33286;BME280;19656;50.096;20.014;2024-03-23T18:46:17;97943.46;;;10.92;65.30
33286;BME280;19656;50.096;20.014;2024-03-23T18:51:20;97948.91;;;10.88;65.70
33286;BME280;19656;50.096;20.014;2024-03-23T18:56:23;97960.55;;;10.96;65.84
33286;BME280;19656;50.096;20.014;2024-03-23T19:01:26;97978.53;;;11.06;65.37
33286;BME280;19656;50.096;20.014;2024-03-23T19:06:29;97990.89;;;11.18;65.15
33286;BME280;19656;50.096;20.014;2024-03-23T19:11:32;97990.81;;;11.32;64.56
33286;BME280;19656;50.096;20.014;2024-03-23T19:16:35;97988.86;;;11.28;64.08
33286;BME280;19656;50.096;20.014;2024-03-23T19:21:38;97984.77;;;11.22;63.79
33286;BME280;19656;50.096;20.014;2024-03-23T19:26:40;97981.79;;;10.97;64.17
33286;BME280;19656;50.096;20.014;2024-03-23T19:31:45;98005.53;;;10.86;64.36
33286;BME280;19656;50.096;20.014;2024-03-23T19:36:48;98007.85;;;10.77;64.33
33286;BME280;19656;50.096;20.014;2024-03-23T19:41:53;98019.55;;;10.73;63.86
33286;BME280;19656;50.096;20.014;2024-03-23T19:46:55;98020.35;;;10.65;63.39
33286;BME280;19656;50.096;20.014;2024-03-23T19:51:58;98014.55;;;10.53;63.14
33286;BME280;19656;50.096;20.014;2024-03-23T19:57:02;98015.66;;;10.55;63.29
33286;BME280;19656;50.096;20.014;2024-03-23T20:02:05;98016.54;;;10.55;63.75
33286;BME280;19656;50.096;20.014;2024-03-23T20:07:08;98014.09;;;10.48;63.52
33286;BME280;19656;50.096;20.014;2024-03-23T20:12:11;98025.73;;;10.41;63.51
33286;BME280;19656;50.096;20.014;2024-03-23T20:17:14;98022.33;;;10.30;63.22
33286;BME280;19656;50.096;20.014;2024-03-23T20:22:19;98002.58;;;10.22;62.27
33286;BME280;19656;50.096;20.014;2024-03-23T20:27:22;98006.98;;;10.04;61.49
33286;BME280;19656;50.096;20.014;2024-03-23T20:32:25;98001.39;;;9.86;61.54
33286;BME280;19656;50.096;20.014;2024-03-23T20:37:28;98003.86;;;9.82;61.45
33286;BME280;19656;50.096;20.014;2024-03-23T20:42:31;97989.09;;;10.06;62.80
33286;BME280;19656;50.096;20.014;2024-03-23T20:47:34;97978.59;;;10.13;60.35
33286;BME280;19656;50.096;20.014;2024-03-23T20:52:40;97986.96;;;10.06;60.16
33286;BME280;19656;50.096;20.014;2024-03-23T20:57:43;97994.41;;;10.04;59.88
33286;BME280;19656;50.096;20.014;2024-03-23T21:02:46;97995.77;;;9.88;59.60
33286;BME280;19656;50.096;20.014;2024-03-23T21:07:49;97990.60;;;9.72;59.84
33286;BME280;19656;50.096;20.014;2024-03-23T21:12:52;97999.52;;;9.64;59.85
33286;BME280;19656;50.096;20.014;2024-03-23T21:17:55;98002.66;;;9.56;60.00
33286;BME280;19656;50.096;20.014;2024-03-23T21:22:59;98015.85;;;9.50;60.03
33286;BME280;19656;50.096;20.014;2024-03-23T21:28:03;98023.39;;;9.48;59.80
33286;BME280;19656;50.096;20.014;2024-03-23T21:33:08;98028.02;;;9.41;59.53
33286;BME280;19656;50.096;20.014;2024-03-23T21:38:12;98026.23;;;9.34;60.15
33286;BME280;19656;50.096;20.014;2024-03-23T21:43:19;98021.60;;;9.34;59.75
33286;BME280;19656;50.096;20.014;2024-03-23T21:48:23;98020.67;;;9.22;59.90
33286;BME280;19656;50.096;20.014;2024-03-23T21:53:27;98012.73;;;9.22;60.01
33286;BME280;19656;50.096;20.014;2024-03-23T21:58:31;98004.16;;;9.21;60.18
33286;BME280;19656;50.096;20.014;2024-03-23T22:03:35;98002.70;;;9.16;60.50
33286;BME280;19656;50.096;20.014;2024-03-23T22:08:39;98000.80;;;9.18;60.62
33286;BME280;19656;50.096;20.014;2024-03-23T22:13:42;97990.84;;;9.31;61.01
33286;BME280;19656;50.096;20.014;2024-03-23T22:18:46;97981.94;;;9.24;59.81
33286;BME280;19656;50.096;20.014;2024-03-23T22:23:50;97987.76;;;9.10;59.31
33286;BME280;19656;50.096;20.014;2024-03-23T22:28:53;97999.92;;;9.04;58.91
33286;BME280;19656;50.096;20.014;2024-03-23T22:33:56;98002.77;;;8.89;58.65
33286;BME280;19656;50.096;20.014;2024-03-23T22:39:02;98000.31;;;8.73;58.48
33286;BME280;19656;50.096;20.014;2024-03-23T22:44:09;97999.16;;;8.57;58.21
33286;BME280;19656;50.096;20.014;2024-03-23T22:49:13;97997.48;;;8.44;58.32
33286;BME280;19656;50.096;20.014;2024-03-23T22:54:16;97988.35;;;8.38;58.19
33286;BME280;19656;50.096;20.014;2024-03-23T22:59:20;97989.23;;;8.32;58.13
33286;BME280;19656;50.096;20.014;2024-03-23T23:04:25;97987.58;;;8.25;58.17
33286;BME280;19656;50.096;20.014;2024-03-23T23:09:29;98006.31;;;8.20;58.19
33286;BME280;19656;50.096;20.014;2024-03-23T23:14:33;98012.98;;;8.24;58.27
33286;BME280;19656;50.096;20.014;2024-03-23T23:19:36;98020.06;;;8.28;58.03
33286;BME280;19656;50.096;20.014;2024-03-23T23:24:39;98017.38;;;8.26;57.78
33286;BME280;19656;50.096;20.014;2024-03-23T23:29:45;98011.10;;;8.20;57.54
33286;BME280;19656;50.096;20.014;2024-03-23T23:34:48;98003.36;;;8.12;57.70
33286;BME280;19656;50.096;20.014;2024-03-23T23:39:51;98006.55;;;8.07;57.70
33286;BME280;19656;50.096;20.014;2024-03-23T23:44:54;98014.64;;;7.92;57.67
33286;BME280;19656;50.096;20.014;2024-03-23T23:49:57;98001.16;;;7.82;57.87
33286;BME280;19656;50.096;20.014;2024-03-23T23:55:00;98026.36;;;7.77;58.09
